sensor_id;sensor_type;location;lat;lon;timestamp;temperature;humidity
15949;DHT22;14848;50.954;6.642;2022-08-19T00:00:35;18.00;99.90
15949;DHT22;14848;50.954;6.642;2022-08-19T00:03:01;18.00;99.90
15949;DHT22;14848;50.954;6.642;2022-08-19T00:05:27;17.90;99.90
15949;DHT22;14848;50.954;6.642;2022-08-19T00:07:52;17.90;99.90
15949;DHT22;14848;50.954;6.642;2022-08-19T00:10:19;17.90;99.90
15949;DHT22;14848;50.954;6.642;2022-08-19T00:12:45;17.90;99.90
15949;DHT22;14848;50.954;6.642;2022-08-19T00:15:14;17.90;99.90
15949;DHT22;14848;50.954;6.642;2022-08-19T00:17:41;18.10;99.90
15949;DHT22;14848;50.954;6.642;2022-08-19T00:20:10;17.90;99.90
15949;DHT22;14848;50.954;6.642;2022-08-19T00:22:36;17.80;99.90
15949;DHT22;14848;50.954;6.642;2022-08-19T00:25:02;17.80;99.90
15949;DHT22;14848;50.954;6.642;2022-08-19T00:27:28;17.80;99.90
15949;DHT22;14848;50.954;6.642;2022-08-19T00:29:54;17.70;99.90
15949;DHT22;14848;50.954;6.642;2022-08-19T00:32:20;17.70;99.90
15949;DHT22;14848;50.954;6.642;2022-08-19T00:34:46;17.70;99.90
15949;DHT22;14848;50.954;6.642;2022-08-19T00:39:38;17.60;99.90
15949;DHT22;14848;50.954;6.642;2022-08-19T00:42:04;17.50;99.90
15949;DHT22;14848;50.954;6.642;2022-08-19T00:44:31;17.50;99.90
15949;DHT22;14848;50.954;6.642;2022-08-19T00:46:58;17.50;99.90
15949;DHT22;14848;50.954;6.642;2022-08-19T00:49:57;17.40;99.90
15949;DHT22;14848;50.954;6.642;2022-08-19T00:52:29;17.40;99.90
15949;DHT22;14848;50.954;6.642;2022-08-19T00:54:57;17.40;99.90
15949;DHT22;14848;50.954;6.642;2022-08-19T00:57:30;17.40;99.90
15949;DHT22;14848;50.954;6.642;2022-08-19T00:59:58;17.40;99.90
15949;DHT22;14848;50.954;6.642;2022-08-19T01:02:25;17.30;99.90
15949;DHT22;14848;50.954;6.642;2022-08-19T01:04:52;17.30;99.90
15949;DHT22;14848;50.954;6.642;2022-08-19T01:07:18;17.30;99.90
15949;DHT22;14848;50.954;6.642;2022-08-19T01:09:43;17.30;99.90
15949;DHT22;14848;50.954;6.642;2022-08-19T01:12:09;17.40;99.90
15949;DHT22;14848;50.954;6.642;2022-08-19T01:17:03;17.20;99.90
15949;DHT22;14848;50.954;6.642;2022-08-19T01:19:41;17.20;99.90
15949;DHT22;14848;50.954;6.642;2022-08-19T01:22:12;17.20;99.90
15949;DHT22;14848;50.954;6.642;2022-08-19T01:24:40;17.10;99.90
15949;DHT22;14848;50.954;6.642;2022-08-19T01:27:07;17.10;99.90
15949;DHT22;14848;50.954;6.642;2022-08-19T01:29:33;17.10;99.90
15949;DHT22;14848;50.954;6.642;2022-08-19T01:32:01;17.00;99.90
15949;DHT22;14848;50.954;6.642;2022-08-19T01:34:26;17.10;99.90
15949;DHT22;14848;50.954;6.642;2022-08-19T01:36:52;16.80;99.90
15949;DHT22;14848;50.954;6.642;2022-08-19T01:39:22;17.00;99.90
15949;DHT22;14848;50.954;6.642;2022-08-19T01:41:49;17.00;99.90
15949;DHT22;14848;50.954;6.642;2022-08-19T01:44:15;17.00;99.90
15949;DHT22;14848;50.954;6.642;2022-08-19T01:46:42;16.90;99.90
15949;DHT22;14848;50.954;6.642;2022-08-19T01:49:09;16.90;99.90
15949;DHT22;14848;50.954;6.642;2022-08-19T01:51:35;16.90;99.90
15949;DHT22;14848;50.954;6.642;2022-08-19T01:54:02;16.90;99.90
15949;DHT22;14848;50.954;6.642;2022-08-19T01:56:28;16.90;99.90
15949;DHT22;14848;50.954;6.642;2022-08-19T01:59:02;16.90;99.90
15949;DHT22;14848;50.954;6.642;2022-08-19T02:01:29;16.90;99.90
15949;DHT22;14848;50.954;6.642;2022-08-19T02:03:58;16.90;99.90
15949;DHT22;14848;50.954;6.642;2022-08-19T02:06:24;16.90;99.90
15949;DHT22;14848;50.954;6.642;2022-08-19T02:08:50;16.80;99.90
15949;DHT22;14848;50.954;6.642;2022-08-19T02:11:30;16.90;99.90
15949;DHT22;14848;50.954;6.642;2022-08-19T02:13:58;16.80;99.90
15949;DHT22;14848;50.954;6.642;2022-08-19T02:16:24;16.90;99.90
15949;DHT22;14848;50.954;6.642;2022-08-19T02:18:50;16.80;99.90
15949;DHT22;14848;50.954;6.642;2022-08-19T02:21:21;16.80;99.90
15949;DHT22;14848;50.954;6.642;2022-08-19T02:23:47;16.80;99.90
15949;DHT22;14848;50.954;6.642;2022-08-19T02:26:14;16.70;99.90
15949;DHT22;14848;50.954;6.642;2022-08-19T02:28:41;16.70;99.90
15949;DHT22;14848;50.954;6.642;2022-08-19T02:31:11;16.60;99.90
15949;DHT22;14848;50.954;6.642;2022-08-19T02:33:38;16.50;99.90
15949;DHT22;14848;50.954;6.642;2022-08-19T02:36:05;16.50;99.90
15949;DHT22;14848;50.954;6.642;2022-08-19T02:41:04;16.40;99.90
15949;DHT22;14848;50.954;6.642;2022-08-19T02:43:31;16.40;99.90
15949;DHT22;14848;50.954;6.642;2022-08-19T02:45:57;16.40;99.90
15949;DHT22;14848;50.954;6.642;2022-08-19T02:48:25;16.40;99.90
15949;DHT22;14848;50.954;6.642;2022-08-19T02:50:52;16.40;99.90
15949;DHT22;14848;50.954;6.642;2022-08-19T02:53:22;16.40;99.90
15949;DHT22;14848;50.954;6.642;2022-08-19T02:55:51;16.40;99.90
15949;DHT22;14848;50.954;6.642;2022-08-19T02:58:17;16.40;99.90
15949;DHT22;14848;50.954;6.642;2022-08-19T03:00:46;16.40;99.90
15949;DHT22;14848;50.954;6.642;2022-08-19T03:03:12;16.40;99.90
15949;DHT22;14848;50.954;6.642;2022-08-19T03:05:39;16.40;99.90
15949;DHT22;14848;50.954;6.642;2022-08-19T03:08:05;16.40;99.90
15949;DHT22;14848;50.954;6.642;2022-08-19T03:10:32;16.40;99.90
15949;DHT22;14848;50.954;6.642;2022-08-19T03:12:57;16.40;99.90
15949;DHT22;14848;50.954;6.642;2022-08-19T03:15:23;16.40;99.90
15949;DHT22;14848;50.954;6.642;2022-08-19T03:17:49;16.40;99.90
15949;DHT22;14848;50.954;6.642;2022-08-19T03:20:14;16.50;99.90
15949;DHT22;14848;50.954;6.642;2022-08-19T03:22:40;16.50;99.90
15949;DHT22;14848;50.954;6.642;2022-08-19T03:25:06;16.50;99.90
15949;DHT22;14848;50.954;6.642;2022-08-19T03:27:32;16.60;99.90
15949;DHT22;14848;50.954;6.642;2022-08-19T03:29:57;16.70;99.90
15949;DHT22;14848;50.954;6.642;2022-08-19T03:32:23;16.80;99.90
15949;DHT22;14848;50.954;6.642;2022-08-19T03:34:49;16.70;99.90
15949;DHT22;14848;50.954;6.642;2022-08-19T03:37:16;16.70;99.90
15949;DHT22;14848;50.954;6.642;2022-08-19T03:39:42;16.70;99.90
15949;DHT22;14848;50.954;6.642;2022-08-19T03:42:09;16.60;99.90
15949;DHT22;14848;50.954;6.642;2022-08-19T03:44:34;15.80;99.90
15949;DHT22;14848;50.954;6.642;2022-08-19T03:47:03;16.60;99.90
15949;DHT22;14848;50.954;6.642;2022-08-19T03:49:30;16.60;99.90
15949;DHT22;14848;50.954;6.642;2022-08-19T03:51:58;16.60;99.90
15949;DHT22;14848;50.954;6.642;2022-08-19T03:54:25;16.60;99.90
15949;DHT22;14848;50.954;6.642;2022-08-19T03:56:52;16.70;99.90
15949;DHT22;14848;50.954;6.642;2022-08-19T03:59:28;16.70;99.90
15949;DHT22;14848;50.954;6.642;2022-08-19T04:01:56;16.60;99.90
15949;DHT22;14848;50.954;6.642;2022-08-19T04:04:23;16.70;99.90
15949;DHT22;14848;50.954;6.642;2022-08-19T04:06:49;16.60;99.90
15949;DHT22;14848;50.954;6.642;2022-08-19T04:09:15;16.60;99.90
15949;DHT22;14848;50.954;6.642;2022-08-19T04:11:49;16.60;99.90
15949;DHT22;14848;50.954;6.642;2022-08-19T04:14:18;16.60;99.90
15949;DHT22;14848;50.954;6.642;2022-08-19T04:16:46;16.50;99.90
15949;DHT22;14848;50.954;6.642;2022-08-19T04:19:13;16.50;99.90
15949;DHT22;14848;50.954;6.642;2022-08-19T04:21:39;16.80;99.90
15949;DHT22;14848;50.954;6.642;2022-08-19T04:24:06;16.40;99.90
15949;DHT22;14848;50.954;6.642;2022-08-19T04:26:34;16.50;99.90
15949;DHT22;14848;50.954;6.642;2022-08-19T04:29:03;16.40;99.90
15949;DHT22;14848;50.954;6.642;2022-08-19T04:31:32;16.50;99.90
15949;DHT22;14848;50.954;6.642;2022-08-19T04:34:03;16.50;99.90
15949;DHT22;14848;50.954;6.642;2022-08-19T04:36:31;16.50;99.90
15949;DHT22;14848;50.954;6.642;2022-08-19T04:38:59;16.50;99.90
15949;DHT22;14848;50.954;6.642;2022-08-19T04:41:26;16.50;99.90
15949;DHT22;14848;50.954;6.642;2022-08-19T04:44:11;16.60;99.90
15949;DHT22;14848;50.954;6.642;2022-08-19T04:46:37;16.50;99.90
15949;DHT22;14848;50.954;6.642;2022-08-19T04:49:04;16.50;99.90
15949;DHT22;14848;50.954;6.642;2022-08-19T04:51:34;16.60;99.90
15949;DHT22;14848;50.954;6.642;2022-08-19T04:54:01;16.60;99.90
15949;DHT22;14848;50.954;6.642;2022-08-19T04:56:27;16.60;99.90
15949;DHT22;14848;50.954;6.642;2022-08-19T04:58:54;16.60;99.90
15949;DHT22;14848;50.954;6.642;2022-08-19T05:01:27;16.70;99.90
15949;DHT22;14848;50.954;6.642;2022-08-19T05:03:58;16.80;99.90
15949;DHT22;14848;50.954;6.642;2022-08-19T05:06:24;16.90;99.90
15949;DHT22;14848;50.954;6.642;2022-08-19T05:08:51;17.00;99.90
15949;DHT22;14848;50.954;6.642;2022-08-19T05:11:20;17.00;99.90
15949;DHT22;14848;50.954;6.642;2022-08-19T05:13:47;17.00;99.90
15949;DHT22;14848;50.954;6.642;2022-08-19T05:16:16;17.10;99.90
15949;DHT22;14848;50.954;6.642;2022-08-19T05:18:43;17.10;99.90
15949;DHT22;14848;50.954;6.642;2022-08-19T05:21:29;17.20;99.90
15949;DHT22;14848;50.954;6.642;2022-08-19T05:24:14;17.30;99.90
15949;DHT22;14848;50.954;6.642;2022-08-19T05:26:42;17.40;99.90
15949;DHT22;14848;50.954;6.642;2022-08-19T05:29:09;17.50;99.90
15949;DHT22;14848;50.954;6.642;2022-08-19T05:31:36;17.70;99.90
15949;DHT22;14848;50.954;6.642;2022-08-19T05:34:03;17.90;99.90
15949;DHT22;14848;50.954;6.642;2022-08-19T05:36:35;18.00;99.90
15949;DHT22;14848;50.954;6.642;2022-08-19T05:39:02;18.10;99.90
15949;DHT22;14848;50.954;6.642;2022-08-19T05:41:29;18.30;99.90
15949;DHT22;14848;50.954;6.642;2022-08-19T05:44:02;18.30;99.90
15949;DHT22;14848;50.954;6.642;2022-08-19T05:46:28;18.30;99.90
15949;DHT22;14848;50.954;6.642;2022-08-19T05:48:54;18.60;99.90
15949;DHT22;14848;50.954;6.642;2022-08-19T06:03:37;21.20;99.90
15949;DHT22;14848;50.954;6.642;2022-08-19T06:06:05;21.50;99.90
15949;DHT22;14848;50.954;6.642;2022-08-19T06:08:31;21.90;99.90
15949;DHT22;14848;50.954;6.642;2022-08-19T06:11:12;22.30;99.90
15949;DHT22;14848;50.954;6.642;2022-08-19T06:13:38;21.80;99.90
15949;DHT22;14848;50.954;6.642;2022-08-19T06:16:04;21.50;99.90
15949;DHT22;14848;50.954;6.642;2022-08-19T06:18:30;21.20;99.90
15949;DHT22;14848;50.954;6.642;2022-08-19T06:20:55;20.80;99.90
15949;DHT22;14848;50.954;6.642;2022-08-19T06:23:21;20.70;99.90
15949;DHT22;14848;50.954;6.642;2022-08-19T06:25:47;20.60;99.90
15949;DHT22;14848;50.954;6.642;2022-08-19T06:28:13;20.20;99.90
15949;DHT22;14848;50.954;6.642;2022-08-19T06:30:38;20.20;99.90
15949;DHT22;14848;50.954;6.642;2022-08-19T06:33:04;20.10;99.90
15949;DHT22;14848;50.954;6.642;2022-08-19T06:35:30;20.00;99.90
15949;DHT22;14848;50.954;6.642;2022-08-19T06:37:55;20.00;99.90
15949;DHT22;14848;50.954;6.642;2022-08-19T06:40:21;20.00;99.90
15949;DHT22;14848;50.954;6.642;2022-08-19T06:42:47;20.10;99.90
15949;DHT22;14848;50.954;6.642;2022-08-19T06:45:12;20.50;99.90
15949;DHT22;14848;50.954;6.642;2022-08-19T06:47:38;21.00;99.90
15949;DHT22;14848;50.954;6.642;2022-08-19T06:50:04;21.50;99.90
15949;DHT22;14848;50.954;6.642;2022-08-19T06:52:31;21.50;99.90
15949;DHT22;14848;50.954;6.642;2022-08-19T06:54:57;21.00;99.90
15949;DHT22;14848;50.954;6.642;2022-08-19T06:57:23;20.50;99.90
15949;DHT22;14848;50.954;6.642;2022-08-19T06:59:49;20.20;99.90
15949;DHT22;14848;50.954;6.642;2022-08-19T07:02:15;20.00;99.90
15949;DHT22;14848;50.954;6.642;2022-08-19T07:04:41;19.80;99.90
15949;DHT22;14848;50.954;6.642;2022-08-19T07:07:09;19.80;99.90
15949;DHT22;14848;50.954;6.642;2022-08-19T07:09:39;20.00;99.90
15949;DHT22;14848;50.954;6.642;2022-08-19T07:12:06;20.20;99.90
15949;DHT22;14848;50.954;6.642;2022-08-19T07:14:34;20.10;99.90
15949;DHT22;14848;50.954;6.642;2022-08-19T07:17:08;20.40;99.90
15949;DHT22;14848;50.954;6.642;2022-08-19T07:19:34;20.90;99.90
15949;DHT22;14848;50.954;6.642;2022-08-19T07:22:03;21.00;99.90
15949;DHT22;14848;50.954;6.642;2022-08-19T07:24:29;21.40;99.90
15949;DHT22;14848;50.954;6.642;2022-08-19T07:26:58;21.60;99.90
15949;DHT22;14848;50.954;6.642;2022-08-19T07:29:27;21.40;99.90
15949;DHT22;14848;50.954;6.642;2022-08-19T07:31:54;21.20;99.90
15949;DHT22;14848;50.954;6.642;2022-08-19T07:34:25;20.90;99.90
15949;DHT22;14848;50.954;6.642;2022-08-19T07:36:52;20.70;99.90
15949;DHT22;14848;50.954;6.642;2022-08-19T07:39:22;20.60;99.90
15949;DHT22;14848;50.954;6.642;2022-08-19T07:41:48;20.50;99.90
15949;DHT22;14848;50.954;6.642;2022-08-19T07:44:15;20.50;99.90
15949;DHT22;14848;50.954;6.642;2022-08-19T07:46:44;20.50;99.90
15949;DHT22;14848;50.954;6.642;2022-08-19T07:49:10;20.00;99.90
15949;DHT22;14848;50.954;6.642;2022-08-19T07:51:43;20.50;99.90
15949;DHT22;14848;50.954;6.642;2022-08-19T07:54:08;20.50;99.90
15949;DHT22;14848;50.954;6.642;2022-08-19T07:56:34;20.60;99.90
15949;DHT22;14848;50.954;6.642;2022-08-19T07:59:00;20.60;99.90
15949;DHT22;14848;50.954;6.642;2022-08-19T08:01:27;20.70;99.90
15949;DHT22;14848;50.954;6.642;2022-08-19T08:03:54;20.80;99.90
15949;DHT22;14848;50.954;6.642;2022-08-19T08:06:38;21.10;99.90
15949;DHT22;14848;50.954;6.642;2022-08-19T08:09:26;20.80;99.90
15949;DHT22;14848;50.954;6.642;2022-08-19T08:14:23;21.10;99.90
15949;DHT22;14848;50.954;6.642;2022-08-19T08:16:49;21.30;99.90
15949;DHT22;14848;50.954;6.642;2022-08-19T08:19:21;21.40;99.90
15949;DHT22;14848;50.954;6.642;2022-08-19T08:21:48;21.50;99.90
15949;DHT22;14848;50.954;6.642;2022-08-19T08:24:15;21.60;99.90
15949;DHT22;14848;50.954;6.642;2022-08-19T08:26:40;21.50;99.90
15949;DHT22;14848;50.954;6.642;2022-08-19T08:29:07;21.20;99.90
15949;DHT22;14848;50.954;6.642;2022-08-19T08:31:37;21.30;99.90
15949;DHT22;14848;50.954;6.642;2022-08-19T08:34:03;21.40;99.90
15949;DHT22;14848;50.954;6.642;2022-08-19T08:36:29;21.50;99.90
15949;DHT22;14848;50.954;6.642;2022-08-19T08:38:59;21.70;99.90
15949;DHT22;14848;50.954;6.642;2022-08-19T08:44:06;22.00;99.90
15949;DHT22;14848;50.954;6.642;2022-08-19T08:46:38;22.10;99.90
15949;DHT22;14848;50.954;6.642;2022-08-19T08:49:35;22.10;99.90
15949;DHT22;14848;50.954;6.642;2022-08-19T08:52:13;22.10;99.90
15949;DHT22;14848;50.954;6.642;2022-08-19T08:54:43;22.10;99.90
15949;DHT22;14848;50.954;6.642;2022-08-19T08:57:14;22.10;99.90
15949;DHT22;14848;50.954;6.642;2022-08-19T08:59:41;22.10;99.90
15949;DHT22;14848;50.954;6.642;2022-08-19T09:02:09;22.30;99.90
15949;DHT22;14848;50.954;6.642;2022-08-19T09:04:38;22.50;99.90
15949;DHT22;14848;50.954;6.642;2022-08-19T09:10:19;23.00;99.90
15949;DHT22;14848;50.954;6.642;2022-08-19T09:18:04;23.50;99.90
15949;DHT22;14848;50.954;6.642;2022-08-19T09:20:30;23.70;99.90
15949;DHT22;14848;50.954;6.642;2022-08-19T09:22:57;23.70;99.90
15949;DHT22;14848;50.954;6.642;2022-08-19T09:25:24;23.50;99.90
15949;DHT22;14848;50.954;6.642;2022-08-19T09:27:51;23.50;99.90
15949;DHT22;14848;50.954;6.642;2022-08-19T09:30:26;23.70;99.90
15949;DHT22;14848;50.954;6.642;2022-08-19T09:32:53;23.80;99.90
15949;DHT22;14848;50.954;6.642;2022-08-19T09:35:26;24.00;99.90
15949;DHT22;14848;50.954;6.642;2022-08-19T09:37:54;24.00;99.90
15949;DHT22;14848;50.954;6.642;2022-08-19T09:40:20;24.10;99.90
15949;DHT22;14848;50.954;6.642;2022-08-19T09:42:46;24.10;99.90
15949;DHT22;14848;50.954;6.642;2022-08-19T09:45:14;24.10;99.90
15949;DHT22;14848;50.954;6.642;2022-08-19T09:47:40;24.10;99.90
15949;DHT22;14848;50.954;6.642;2022-08-19T09:50:09;24.20;99.90
15949;DHT22;14848;50.954;6.642;2022-08-19T09:52:35;24.10;99.90
15949;DHT22;14848;50.954;6.642;2022-08-19T09:55:03;24.10;99.90
15949;DHT22;14848;50.954;6.642;2022-08-19T09:57:29;24.00;99.90
15949;DHT22;14848;50.954;6.642;2022-08-19T09:59:55;23.90;99.90
15949;DHT22;14848;50.954;6.642;2022-08-19T10:02:20;23.70;99.90
15949;DHT22;14848;50.954;6.642;2022-08-19T10:04:46;23.70;99.90
15949;DHT22;14848;50.954;6.642;2022-08-19T10:07:30;23.40;99.90
15949;DHT22;14848;50.954;6.642;2022-08-19T10:09:56;23.50;99.90
15949;DHT22;14848;50.954;6.642;2022-08-19T10:12:22;23.60;99.90
15949;DHT22;14848;50.954;6.642;2022-08-19T10:14:48;23.80;99.90
15949;DHT22;14848;50.954;6.642;2022-08-19T10:17:14;24.00;99.90
15949;DHT22;14848;50.954;6.642;2022-08-19T10:19:40;24.30;99.90
15949;DHT22;14848;50.954;6.642;2022-08-19T10:22:07;24.40;99.90
15949;DHT22;14848;50.954;6.642;2022-08-19T10:24:34;23.40;99.90
15949;DHT22;14848;50.954;6.642;2022-08-19T10:27:00;24.20;99.90
15949;DHT22;14848;50.954;6.642;2022-08-19T10:29:29;24.30;99.90
15949;DHT22;14848;50.954;6.642;2022-08-19T10:31:55;24.20;99.90
15949;DHT22;14848;50.954;6.642;2022-08-19T10:34:23;24.40;99.90
15949;DHT22;14848;50.954;6.642;2022-08-19T10:36:48;24.50;99.90
15949;DHT22;14848;50.954;6.642;2022-08-19T10:39:15;24.80;99.90
15949;DHT22;14848;50.954;6.642;2022-08-19T10:41:40;24.80;99.90
15949;DHT22;14848;50.954;6.642;2022-08-19T10:44:10;24.90;99.90
15949;DHT22;14848;50.954;6.642;2022-08-19T10:46:38;24.60;99.90
15949;DHT22;14848;50.954;6.642;2022-08-19T10:49:07;24.60;99.90
15949;DHT22;14848;50.954;6.642;2022-08-19T10:51:34;24.70;99.90
15949;DHT22;14848;50.954;6.642;2022-08-19T10:54:19;24.60;99.90
15949;DHT22;14848;50.954;6.642;2022-08-19T10:56:45;24.40;99.90
15949;DHT22;14848;50.954;6.642;2022-08-19T10:59:28;24.40;99.90
15949;DHT22;14848;50.954;6.642;2022-08-19T11:02:05;24.40;99.90
15949;DHT22;14848;50.954;6.642;2022-08-19T11:04:31;24.30;99.90
15949;DHT22;14848;50.954;6.642;2022-08-19T11:06:57;24.30;99.90
15949;DHT22;14848;50.954;6.642;2022-08-19T11:09:25;24.40;99.90
15949;DHT22;14848;50.954;6.642;2022-08-19T11:11:52;24.30;99.90
15949;DHT22;14848;50.954;6.642;2022-08-19T11:14:20;24.20;99.90
15949;DHT22;14848;50.954;6.642;2022-08-19T11:16:47;24.30;99.90
15949;DHT22;14848;50.954;6.642;2022-08-19T11:19:13;24.40;99.90
15949;DHT22;14848;50.954;6.642;2022-08-19T11:21:43;24.40;99.90
15949;DHT22;14848;50.954;6.642;2022-08-19T11:24:19;24.40;99.90
15949;DHT22;14848;50.954;6.642;2022-08-19T11:26:47;24.50;99.90
15949;DHT22;14848;50.954;6.642;2022-08-19T11:29:15;24.50;99.90
15949;DHT22;14848;50.954;6.642;2022-08-19T11:31:43;24.60;99.90
15949;DHT22;14848;50.954;6.642;2022-08-19T11:34:12;24.80;99.90
15949;DHT22;14848;50.954;6.642;2022-08-19T11:36:41;25.00;99.90
15949;DHT22;14848;50.954;6.642;2022-08-19T11:39:09;25.20;99.90
15949;DHT22;14848;50.954;6.642;2022-08-19T11:41:35;25.40;99.90
15949;DHT22;14848;50.954;6.642;2022-08-19T11:44:01;25.30;99.90
15949;DHT22;14848;50.954;6.642;2022-08-19T11:46:28;25.30;99.90
15949;DHT22;14848;50.954;6.642;2022-08-19T11:48:56;25.20;99.90
15949;DHT22;14848;50.954;6.642;2022-08-19T11:51:23;25.10;99.90
15949;DHT22;14848;50.954;6.642;2022-08-19T11:53:53;25.20;99.90
15949;DHT22;14848;50.954;6.642;2022-08-19T11:56:20;25.20;99.90
15949;DHT22;14848;50.954;6.642;2022-08-19T11:58:46;25.30;99.90
15949;DHT22;14848;50.954;6.642;2022-08-19T12:01:14;25.40;99.90
15949;DHT22;14848;50.954;6.642;2022-08-19T12:03:42;25.50;99.90
15949;DHT22;14848;50.954;6.642;2022-08-19T12:06:10;25.40;99.90
15949;DHT22;14848;50.954;6.642;2022-08-19T12:08:37;25.50;99.90
15949;DHT22;14848;50.954;6.642;2022-08-19T12:11:04;25.50;99.90
15949;DHT22;14848;50.954;6.642;2022-08-19T12:13:30;25.30;99.90
15949;DHT22;14848;50.954;6.642;2022-08-19T12:15:56;25.20;99.90
15949;DHT22;14848;50.954;6.642;2022-08-19T12:18:23;25.30;99.90
15949;DHT22;14848;50.954;6.642;2022-08-19T12:20:51;25.20;99.90
15949;DHT22;14848;50.954;6.642;2022-08-19T12:23:17;25.30;99.90
15949;DHT22;14848;50.954;6.642;2022-08-19T12:25:46;25.30;99.90
15949;DHT22;14848;50.954;6.642;2022-08-19T12:28:16;25.30;99.90
15949;DHT22;14848;50.954;6.642;2022-08-19T12:30:42;25.30;99.90
15949;DHT22;14848;50.954;6.642;2022-08-19T12:35:33;25.30;99.90
15949;DHT22;14848;50.954;6.642;2022-08-19T12:37:59;25.30;99.90
15949;DHT22;14848;50.954;6.642;2022-08-19T12:40:27;25.40;99.90
15949;DHT22;14848;50.954;6.642;2022-08-19T12:42:53;25.40;99.90
15949;DHT22;14848;50.954;6.642;2022-08-19T12:45:19;25.30;99.90
15949;DHT22;14848;50.954;6.642;2022-08-19T12:47:44;25.30;99.90
15949;DHT22;14848;50.954;6.642;2022-08-19T12:50:11;25.50;99.90
15949;DHT22;14848;50.954;6.642;2022-08-19T12:52:37;25.70;99.90
15949;DHT22;14848;50.954;6.642;2022-08-19T12:55:05;25.90;99.90
15949;DHT22;14848;50.954;6.642;2022-08-19T12:57:31;26.00;99.90
15949;DHT22;14848;50.954;6.642;2022-08-19T13:02:26;25.90;99.90
15949;DHT22;14848;50.954;6.642;2022-08-19T13:04:52;26.00;99.90
15949;DHT22;14848;50.954;6.642;2022-08-19T13:07:18;26.00;99.90
15949;DHT22;14848;50.954;6.642;2022-08-19T13:09:43;25.80;99.90
15949;DHT22;14848;50.954;6.642;2022-08-19T13:12:10;25.80;99.90
15949;DHT22;14848;50.954;6.642;2022-08-19T13:14:39;25.80;99.90
15949;DHT22;14848;50.954;6.642;2022-08-19T13:21:58;26.00;99.90
15949;DHT22;14848;50.954;6.642;2022-08-19T13:24:24;26.10;99.90
15949;DHT22;14848;50.954;6.642;2022-08-19T13:26:50;26.20;99.90
15949;DHT22;14848;50.954;6.642;2022-08-19T13:29:16;26.30;99.90
15949;DHT22;14848;50.954;6.642;2022-08-19T13:32:00;26.30;99.90
15949;DHT22;14848;50.954;6.642;2022-08-19T13:34:44;26.30;99.90
15949;DHT22;14848;50.954;6.642;2022-08-19T13:37:12;26.30;99.90
15949;DHT22;14848;50.954;6.642;2022-08-19T13:39:37;26.00;99.90
15949;DHT22;14848;50.954;6.642;2022-08-19T13:42:04;26.00;99.90
15949;DHT22;14848;50.954;6.642;2022-08-19T13:44:31;26.10;99.90
15949;DHT22;14848;50.954;6.642;2022-08-19T13:47:02;26.10;99.90
15949;DHT22;14848;50.954;6.642;2022-08-19T13:49:32;26.00;99.90
15949;DHT22;14848;50.954;6.642;2022-08-19T13:51:58;26.10;99.90
15949;DHT22;14848;50.954;6.642;2022-08-19T13:54:23;26.20;99.90
15949;DHT22;14848;50.954;6.642;2022-08-19T13:56:49;25.90;99.90
15949;DHT22;14848;50.954;6.642;2022-08-19T13:59:15;26.30;99.90
15949;DHT22;14848;50.954;6.642;2022-08-19T14:01:41;26.20;99.90
15949;DHT22;14848;50.954;6.642;2022-08-19T14:04:07;26.30;99.90
15949;DHT22;14848;50.954;6.642;2022-08-19T14:06:33;26.30;99.90
15949;DHT22;14848;50.954;6.642;2022-08-19T14:08:59;26.30;99.90
15949;DHT22;14848;50.954;6.642;2022-08-19T14:11:27;26.60;99.90
15949;DHT22;14848;50.954;6.642;2022-08-19T14:13:53;26.50;99.90
15949;DHT22;14848;50.954;6.642;2022-08-19T14:16:19;26.40;99.90
15949;DHT22;14848;50.954;6.642;2022-08-19T14:18:46;26.40;99.90
15949;DHT22;14848;50.954;6.642;2022-08-19T14:21:21;26.40;99.90
15949;DHT22;14848;50.954;6.642;2022-08-19T14:23:49;26.50;99.90
15949;DHT22;14848;50.954;6.642;2022-08-19T14:26:17;26.50;99.90
15949;DHT22;14848;50.954;6.642;2022-08-19T14:28:44;26.60;99.90
15949;DHT22;14848;50.954;6.642;2022-08-19T14:33:36;26.70;99.90
15949;DHT22;14848;50.954;6.642;2022-08-19T14:36:03;26.70;99.90
15949;DHT22;14848;50.954;6.642;2022-08-19T14:38:29;26.70;99.90
15949;DHT22;14848;50.954;6.642;2022-08-19T14:41:13;26.70;99.90
15949;DHT22;14848;50.954;6.642;2022-08-19T14:43:46;26.90;99.90
15949;DHT22;14848;50.954;6.642;2022-08-19T14:46:14;26.90;99.90
15949;DHT22;14848;50.954;6.642;2022-08-19T14:48:41;27.10;99.90
15949;DHT22;14848;50.954;6.642;2022-08-19T14:51:07;27.10;99.90
15949;DHT22;14848;50.954;6.642;2022-08-19T14:53:33;26.80;99.90
15949;DHT22;14848;50.954;6.642;2022-08-19T14:55:59;26.70;99.90
15949;DHT22;14848;50.954;6.642;2022-08-19T14:58:26;26.70;99.90
15949;DHT22;14848;50.954;6.642;2022-08-19T15:00:52;26.90;99.90
15949;DHT22;14848;50.954;6.642;2022-08-19T15:03:18;27.20;99.90
15949;DHT22;14848;50.954;6.642;2022-08-19T15:05:44;27.30;99.90
15949;DHT22;14848;50.954;6.642;2022-08-19T15:08:10;27.20;99.90
15949;DHT22;14848;50.954;6.642;2022-08-19T15:10:37;27.10;99.90
15949;DHT22;14848;50.954;6.642;2022-08-19T15:13:03;26.80;99.90
15949;DHT22;14848;50.954;6.642;2022-08-19T15:15:29;26.60;99.90
15949;DHT22;14848;50.954;6.642;2022-08-19T15:17:55;26.40;99.90
15949;DHT22;14848;50.954;6.642;2022-08-19T15:20:28;26.40;99.90
15949;DHT22;14848;50.954;6.642;2022-08-19T15:22:53;26.30;99.90
15949;DHT22;14848;50.954;6.642;2022-08-19T15:25:19;26.40;99.90
15949;DHT22;14848;50.954;6.642;2022-08-19T15:27:47;26.50;99.90
15949;DHT22;14848;50.954;6.642;2022-08-19T15:30:20;26.30;99.90
15949;DHT22;14848;50.954;6.642;2022-08-19T15:32:47;26.20;99.90
15949;DHT22;14848;50.954;6.642;2022-08-19T15:35:12;26.10;99.90
15949;DHT22;14848;50.954;6.642;2022-08-19T15:37:38;26.00;99.90
15949;DHT22;14848;50.954;6.642;2022-08-19T15:40:05;26.10;99.90
15949;DHT22;14848;50.954;6.642;2022-08-19T15:42:37;26.00;99.90
15949;DHT22;14848;50.954;6.642;2022-08-19T15:45:05;26.10;99.90
15949;DHT22;14848;50.954;6.642;2022-08-19T15:47:31;26.20;99.90
15949;DHT22;14848;50.954;6.642;2022-08-19T15:49:56;26.10;99.90
15949;DHT22;14848;50.954;6.642;2022-08-19T15:52:23;26.20;99.90
15949;DHT22;14848;50.954;6.642;2022-08-19T15:54:49;26.20;99.90
15949;DHT22;14848;50.954;6.642;2022-08-19T15:57:15;26.10;99.90
15949;DHT22;14848;50.954;6.642;2022-08-19T15:59:47;26.20;99.90
15949;DHT22;14848;50.954;6.642;2022-08-19T16:02:32;26.10;99.90
15949;DHT22;14848;50.954;6.642;2022-08-19T16:05:21;26.10;99.90
15949;DHT22;14848;50.954;6.642;2022-08-19T16:08:05;25.90;99.90
15949;DHT22;14848;50.954;6.642;2022-08-19T16:10:33;25.70;99.90
15949;DHT22;14848;50.954;6.642;2022-08-19T16:12:59;25.60;99.90
15949;DHT22;14848;50.954;6.642;2022-08-19T16:15:26;25.60;99.90
15949;DHT22;14848;50.954;6.642;2022-08-19T16:17:52;25.50;99.90
15949;DHT22;14848;50.954;6.642;2022-08-19T16:20:19;25.50;99.90